createdAt,value
2023-08-06T00:01:30.250Z,17.50
2023-08-06T00:04:00.332Z,17.50
2023-08-06T00:06:28.719Z,17.50
2023-08-06T00:08:57.132Z,17.50
2023-08-06T00:11:27.318Z,17.50
2023-08-06T00:13:55.739Z,17.50
2023-08-06T00:16:24.285Z,17.40
2023-08-06T00:18:52.892Z,17.40
2023-08-06T00:21:21.221Z,17.40
2023-08-06T00:23:49.582Z,17.40
2023-08-06T00:26:18.009Z,17.50
2023-08-06T00:28:47.775Z,17.50
2023-08-06T00:31:16.240Z,17.50
2023-08-06T00:33:44.633Z,17.50
2023-08-06T00:36:12.982Z,17.50
2023-08-06T00:38:41.889Z,17.50
2023-08-06T00:41:10.841Z,17.40
2023-08-06T00:43:39.229Z,17.40
2023-08-06T00:46:09.135Z,17.40
2023-08-06T00:48:37.556Z,17.40
2023-08-06T00:51:06.031Z,17.40
2023-08-06T00:53:34.665Z,17.40
2023-08-06T00:56:03.328Z,17.40
2023-08-06T00:58:31.694Z,17.40
2023-08-06T01:01:00.240Z,17.40
2023-08-06T01:03:30.045Z,17.40
2023-08-06T01:05:58.558Z,17.40
2023-08-06T01:08:35.968Z,17.30
2023-08-06T01:11:15.937Z,17.30
2023-08-06T01:13:47.946Z,17.30
2023-08-06T01:16:17.735Z,17.20
2023-08-06T01:18:50.283Z,17.20
2023-08-06T01:21:20.204Z,17.10
2023-08-06T01:23:48.931Z,17.10
2023-08-06T01:26:21.675Z,17.10
2023-08-06T01:28:54.565Z,17.10
2023-08-06T01:31:26.870Z,17.10
2023-08-06T01:33:55.292Z,17.10
2023-08-06T01:36:25.102Z,17.10
2023-08-06T01:38:54.091Z,17.10
2023-08-06T01:41:22.484Z,17.10
2023-08-06T01:43:50.839Z,17.10
2023-08-06T01:46:19.363Z,17.00
2023-08-06T01:48:47.771Z,17.00
2023-08-06T01:51:16.211Z,17.00
2023-08-06T01:53:46.026Z,17.00
2023-08-06T01:56:14.492Z,16.90
2023-08-06T01:58:42.972Z,16.90
2023-08-06T02:01:11.373Z,16.90
2023-08-06T02:03:39.773Z,16.90
2023-08-06T02:06:08.196Z,16.90
2023-08-06T02:08:36.601Z,16.90
2023-08-06T02:11:06.460Z,16.80
2023-08-06T02:13:34.946Z,16.80
2023-08-06T02:16:03.497Z,16.80
2023-08-06T02:18:31.971Z,16.80
2023-08-06T02:21:00.614Z,16.80
2023-08-06T02:23:29.120Z,16.70
2023-08-06T02:26:02.116Z,16.70
2023-08-06T02:28:32.040Z,16.70
2023-08-06T02:31:00.517Z,16.70
2023-08-06T02:33:29.004Z,16.70
2023-08-06T02:36:04.418Z,16.70
2023-08-06T02:38:32.945Z,16.70
2023-08-06T02:41:01.322Z,16.70
2023-08-06T02:43:31.134Z,16.70
2023-08-06T02:46:00.131Z,16.70
2023-08-06T02:48:28.586Z,16.70
2023-08-06T02:51:00.450Z,16.70
2023-08-06T02:53:28.924Z,16.70
2023-08-06T02:55:57.544Z,16.70
2023-08-06T02:58:26.154Z,16.70
2023-08-06T03:01:08.148Z,16.60
2023-08-06T03:03:36.736Z,16.60
2023-08-06T03:06:05.347Z,16.60
2023-08-06T03:08:33.780Z,16.60
2023-08-06T03:11:02.239Z,16.60
2023-08-06T03:13:30.666Z,16.60
2023-08-06T03:16:00.146Z,16.60
2023-08-06T03:18:30.247Z,16.60
2023-08-06T03:20:59.089Z,16.60
2023-08-06T03:23:27.488Z,16.60
2023-08-06T03:25:55.854Z,16.60
2023-08-06T03:28:24.501Z,16.60
2023-08-06T03:31:02.372Z,16.60
2023-08-06T03:33:32.374Z,16.60
2023-08-06T03:36:00.837Z,16.50
2023-08-06T03:38:29.495Z,16.50
2023-08-06T03:40:58.012Z,16.50
2023-08-06T03:43:26.296Z,16.50
2023-08-06T03:45:54.782Z,16.50
2023-08-06T03:48:23.174Z,16.50
2023-08-06T03:50:52.982Z,16.50
2023-08-06T03:53:21.380Z,16.50
2023-08-06T03:55:49.806Z,16.50
2023-08-06T03:58:18.251Z,16.50
2023-08-06T04:00:46.719Z,16.50
2023-08-06T04:03:15.342Z,16.50
2023-08-06T04:05:43.825Z,16.40
2023-08-06T04:08:13.646Z,16.50
2023-08-06T04:10:42.015Z,16.40
2023-08-06T04:13:10.330Z,16.40
2023-08-06T04:15:38.791Z,16.40
2023-08-06T04:18:07.334Z,16.50
2023-08-06T04:20:35.768Z,16.40
2023-08-06T04:23:08.733Z,16.50
2023-08-06T04:25:38.646Z,16.40
2023-08-06T04:28:07.076Z,16.40
2023-08-06T04:30:35.578Z,16.40
2023-08-06T04:33:04.104Z,16.40
2023-08-06T04:35:32.524Z,16.40
2023-08-06T04:38:00.929Z,16.40
2023-08-06T04:40:29.309Z,16.40
2023-08-06T04:42:59.156Z,16.40
2023-08-06T04:45:27.564Z,16.40
2023-08-06T04:47:55.990Z,16.40
2023-08-06T04:50:24.472Z,16.40
2023-08-06T04:52:52.920Z,16.50
2023-08-06T04:55:21.325Z,16.50
2023-08-06T04:57:49.720Z,16.50
2023-08-06T05:00:19.645Z,16.50
2023-08-06T05:02:48.119Z,16.50
2023-08-06T05:05:16.713Z,16.50
2023-08-06T05:07:45.141Z,16.50
2023-08-06T05:10:13.577Z,16.50
2023-08-06T05:12:42.021Z,16.60
2023-08-06T05:15:11.505Z,16.60
2023-08-06T05:17:41.278Z,16.60
2023-08-06T05:20:10.982Z,16.70
2023-08-06T05:22:39.434Z,16.70
2023-08-06T05:25:09.060Z,16.70
2023-08-06T05:27:37.611Z,16.70
2023-08-06T05:30:08.086Z,16.70
2023-08-06T05:32:36.520Z,16.80
2023-08-06T05:35:07.520Z,16.80
2023-08-06T05:37:35.990Z,16.80
2023-08-06T05:40:05.306Z,16.80
2023-08-06T05:42:33.701Z,16.90
2023-08-06T05:45:02.100Z,16.90
2023-08-06T05:47:30.557Z,16.90
2023-08-06T05:49:58.934Z,17.00
2023-08-06T05:52:28.665Z,17.00
2023-08-06T05:54:57.184Z,17.00
2023-08-06T05:57:25.671Z,17.00
2023-08-06T05:59:54.122Z,17.00
2023-08-06T06:02:22.626Z,17.10
2023-08-06T06:04:51.133Z,17.10
2023-08-06T06:07:19.575Z,17.10
2023-08-06T06:09:49.347Z,17.00
2023-08-06T06:12:17.805Z,16.90
2023-08-06T06:14:46.376Z,16.90
2023-08-06T06:17:14.818Z,16.90
2023-08-06T06:19:43.559Z,17.00
2023-08-06T06:22:11.948Z,17.00
2023-08-06T06:24:40.596Z,17.10
2023-08-06T06:27:10.471Z,17.10
2023-08-06T06:29:38.884Z,17.10
2023-08-06T06:32:08.079Z,17.10
2023-08-06T06:34:37.158Z,17.10
2023-08-06T06:37:06.482Z,17.10
2023-08-06T06:39:35.101Z,17.20
2023-08-06T06:42:03.489Z,17.30
2023-08-06T06:44:33.254Z,17.30
2023-08-06T06:47:01.610Z,17.40
2023-08-06T06:49:30.063Z,17.40
2023-08-06T06:51:58.514Z,17.40
2023-08-06T06:54:26.876Z,17.50
2023-08-06T06:56:55.292Z,17.50
2023-08-06T06:59:23.714Z,17.60
2023-08-06T07:01:53.649Z,17.60
2023-08-06T07:04:22.370Z,17.60
2023-08-06T07:06:50.760Z,17.70
2023-08-06T07:09:19.518Z,17.70
2023-08-06T07:11:48.187Z,17.80
2023-08-06T07:14:16.660Z,17.80
2023-08-06T07:16:45.080Z,17.90
2023-08-06T07:19:15.029Z,17.90
2023-08-06T07:21:43.476Z,17.80
2023-08-06T07:24:12.777Z,17.70
2023-08-06T07:26:41.261Z,17.70
2023-08-06T07:29:09.658Z,17.70
2023-08-06T07:31:38.021Z,17.70
2023-08-06T07:34:06.581Z,17.70
2023-08-06T07:36:36.408Z,17.80
2023-08-06T07:39:07.365Z,17.90
2023-08-06T07:41:35.756Z,17.90
2023-08-06T07:44:04.188Z,17.90
2023-08-06T07:46:33.042Z,17.90
2023-08-06T07:49:01.581Z,18.00
2023-08-06T07:51:29.975Z,18.00
2023-08-06T07:54:00.885Z,18.10
2023-08-06T07:56:29.213Z,18.00
2023-08-06T07:58:57.772Z,17.90
2023-08-06T08:01:26.238Z,17.90
2023-08-06T08:03:54.607Z,17.80
2023-08-06T08:06:24.223Z,17.90
2023-08-06T08:08:53.076Z,17.90
2023-08-06T08:11:23.157Z,18.00
2023-08-06T08:13:51.532Z,18.00
2023-08-06T08:16:19.957Z,18.10
2023-08-06T08:18:48.401Z,18.10
2023-08-06T08:21:16.868Z,18.10
2023-08-06T08:23:45.446Z,18.20
2023-08-06T08:26:13.859Z,18.10
2023-08-06T08:28:43.633Z,18.20
2023-08-06T08:31:12.537Z,18.10
2023-08-06T08:33:41.146Z,18.10
2023-08-06T08:36:10.910Z,18.00
2023-08-06T08:38:39.301Z,18.00
2023-08-06T08:41:07.935Z,18.10
2023-08-06T08:43:36.431Z,18.10
2023-08-06T08:46:07.214Z,18.20
2023-08-06T08:48:35.740Z,18.30
2023-08-06T08:51:04.208Z,18.40
2023-08-06T08:53:32.586Z,18.50
2023-08-06T08:56:02.263Z,18.50
2023-08-06T08:58:33.382Z,18.50
2023-08-06T09:01:03.157Z,18.60
2023-08-06T09:03:33.473Z,18.60
2023-08-06T09:06:01.940Z,18.60
2023-08-06T09:08:34.059Z,18.60
2023-08-06T09:11:02.600Z,18.70
2023-08-06T09:13:31.134Z,18.80
2023-08-06T09:15:59.774Z,18.90
2023-08-06T09:18:29.954Z,19.00
2023-08-06T09:20:59.909Z,19.10
2023-08-06T09:23:32.033Z,19.00
2023-08-06T09:26:01.411Z,19.10
2023-08-06T09:28:39.618Z,19.10
2023-08-06T09:31:08.022Z,19.10
2023-08-06T09:33:38.072Z,19.10
2023-08-06T09:36:12.341Z,19.20
2023-08-06T09:38:42.304Z,19.20
2023-08-06T09:41:10.879Z,19.30
2023-08-06T09:43:45.192Z,19.30
2023-08-06T09:46:16.919Z,19.30
2023-08-06T09:48:48.069Z,19.30
2023-08-06T09:51:17.866Z,19.20
2023-08-06T09:53:46.444Z,19.20
2023-08-06T09:56:15.066Z,19.10
2023-08-06T09:58:44.220Z,19.10
2023-08-06T10:01:12.916Z,19.00
2023-08-06T10:03:41.483Z,18.90
2023-08-06T10:06:10.113Z,18.80
2023-08-06T10:08:41.780Z,18.70
2023-08-06T10:11:11.627Z,18.60
2023-08-06T10:13:40.383Z,18.40
2023-08-06T10:16:08.975Z,18.20
2023-08-06T10:18:38.324Z,18.10
2023-08-06T10:21:09.901Z,18.00
2023-08-06T10:23:41.926Z,18.00
2023-08-06T10:26:10.394Z,18.10
2023-08-06T10:28:40.213Z,18.20
2023-08-06T10:31:08.635Z,18.20
2023-08-06T10:33:45.371Z,18.30
2023-08-06T10:36:13.834Z,18.30
2023-08-06T10:38:50.617Z,18.40
2023-08-06T10:41:25.370Z,18.60
2023-08-06T10:43:53.859Z,18.70
2023-08-06T10:46:26.273Z,18.70
2023-08-06T10:48:54.715Z,18.80
2023-08-06T10:51:23.127Z,18.80
2023-08-06T10:53:52.989Z,19.00
2023-08-06T10:56:23.287Z,19.00
2023-08-06T10:58:52.695Z,19.10
2023-08-06T11:01:21.136Z,19.10
2023-08-06T11:03:50.473Z,19.10
2023-08-06T11:06:20.821Z,19.10
2023-08-06T11:08:54.556Z,19.10
2023-08-06T11:11:24.391Z,19.10
2023-08-06T11:13:53.358Z,19.20
2023-08-06T11:16:22.963Z,19.20
2023-08-06T11:18:51.351Z,19.20
2023-08-06T11:21:21.806Z,19.20
2023-08-06T11:23:52.013Z,19.20
2023-08-06T11:26:22.305Z,19.30
2023-08-06T11:28:51.152Z,19.30
2023-08-06T11:31:23.107Z,19.40
2023-08-06T11:33:53.049Z,19.50
2023-08-06T11:36:32.015Z,19.50
2023-08-06T11:39:01.961Z,19.50
2023-08-06T11:41:31.387Z,19.50
2023-08-06T11:43:59.911Z,19.50
2023-08-06T11:46:28.508Z,19.60
2023-08-06T11:48:57.297Z,19.50
2023-08-06T11:51:27.000Z,19.50
2023-08-06T11:53:57.766Z,19.50
2023-08-06T11:56:27.734Z,19.40
2023-08-06T11:58:56.903Z,19.40
2023-08-06T12:01:25.887Z,19.40
2023-08-06T12:03:54.430Z,19.40
2023-08-06T12:06:22.837Z,19.40
2023-08-06T12:08:51.994Z,19.60
2023-08-06T12:11:23.412Z,19.60
2023-08-06T12:13:54.898Z,19.50
2023-08-06T12:16:25.190Z,19.60
2023-08-06T12:18:53.673Z,19.60
2023-08-06T12:21:22.118Z,19.70
2023-08-06T12:23:50.470Z,19.70
2023-08-06T12:26:18.883Z,19.80
2023-08-06T12:28:47.263Z,19.80
2023-08-06T12:31:17.026Z,19.90
2023-08-06T12:33:45.617Z,19.90
2023-08-06T12:36:13.985Z,19.80
2023-08-06T12:38:42.322Z,19.90
2023-08-06T12:41:10.760Z,19.80
2023-08-06T12:43:39.191Z,19.70
2023-08-06T12:46:07.665Z,19.70
2023-08-06T12:48:37.461Z,19.60
2023-08-06T12:51:05.853Z,19.50
2023-08-06T12:53:34.233Z,19.50
2023-08-06T12:56:05.516Z,19.40
2023-08-06T12:58:33.985Z,19.30
2023-08-06T13:01:02.410Z,19.30
2023-08-06T13:03:33.314Z,19.20
2023-08-06T13:06:03.327Z,19.10
2023-08-06T13:08:31.774Z,19.10
2023-08-06T13:11:00.120Z,19.10
2023-08-06T13:13:28.690Z,19.00
2023-08-06T13:15:57.134Z,19.00
2023-08-06T13:18:25.529Z,19.00
2023-08-06T13:20:55.799Z,19.00
2023-08-06T13:23:25.598Z,18.90
2023-08-06T13:25:54.027Z,18.90
2023-08-06T13:28:22.467Z,18.90
2023-08-06T13:30:50.946Z,18.90
2023-08-06T13:33:19.451Z,18.90
2023-08-06T13:35:47.876Z,18.90
2023-08-06T13:38:16.338Z,18.80
2023-08-06T13:40:47.483Z,18.80
2023-08-06T13:43:18.159Z,18.80
2023-08-06T13:45:46.595Z,18.80
2023-08-06T13:48:15.042Z,18.80
2023-08-06T13:50:43.488Z,18.80
2023-08-06T13:53:11.847Z,18.80
2023-08-06T13:55:40.552Z,18.80
2023-08-06T13:58:10.515Z,18.80
2023-08-06T14:00:38.929Z,18.70
2023-08-06T14:03:07.317Z,18.70
2023-08-06T14:05:35.755Z,18.70
2023-08-06T14:08:04.206Z,18.60
2023-08-06T14:10:32.697Z,18.60
2023-08-06T14:13:09.979Z,18.60
2023-08-06T14:15:41.468Z,18.60
2023-08-06T14:18:10.433Z,18.60
2023-08-06T14:20:38.847Z,18.50
2023-08-06T14:23:07.237Z,18.60
2023-08-06T14:25:35.691Z,18.60
2023-08-06T14:28:04.173Z,18.50
2023-08-06T14:30:32.607Z,18.50
2023-08-06T14:33:16.523Z,18.50
2023-08-06T14:35:49.659Z,18.50
2023-08-06T14:38:18.112Z,18.50
2023-08-06T14:40:46.572Z,18.60
2023-08-06T14:43:15.895Z,18.50
2023-08-06T14:45:44.495Z,18.50
2023-08-06T14:48:14.236Z,18.50
2023-08-06T14:50:42.779Z,18.40
2023-08-06T14:53:12.868Z,18.40
2023-08-06T14:55:42.886Z,18.40
2023-08-06T14:58:11.336Z,18.40
2023-08-06T15:00:39.814Z,18.40
2023-08-06T15:03:08.205Z,18.40
2023-08-06T15:05:38.063Z,18.40
2023-08-06T15:08:06.463Z,18.40
2023-08-06T15:10:34.969Z,18.50
2023-08-06T15:13:04.223Z,18.50
2023-08-06T15:15:32.634Z,18.50
2023-08-06T15:18:01.064Z,18.60
2023-08-06T15:20:29.582Z,18.60
2023-08-06T15:22:59.373Z,18.50
2023-08-06T15:25:28.733Z,18.50
2023-08-06T15:27:57.160Z,18.40
2023-08-06T15:30:25.593Z,18.30
2023-08-06T15:32:54.025Z,18.20
2023-08-06T15:35:22.661Z,18.30
2023-08-06T15:37:51.076Z,18.30
2023-08-06T15:40:20.830Z,18.30
2023-08-06T15:42:49.207Z,18.30
2023-08-06T15:45:17.764Z,18.30
2023-08-06T15:47:46.174Z,18.20
2023-08-06T15:50:15.035Z,18.20
2023-08-06T15:52:43.472Z,18.20
2023-08-06T15:55:12.080Z,18.10
2023-08-06T15:57:41.850Z,18.10
2023-08-06T16:00:11.958Z,18.10
2023-08-06T16:02:40.389Z,18.10
2023-08-06T16:05:09.558Z,18.10
2023-08-06T16:07:38.050Z,18.10
2023-08-06T16:10:07.816Z,18.10
2023-08-06T16:12:36.196Z,18.10
2023-08-06T16:15:07.834Z,18.10
2023-08-06T16:17:36.204Z,18.00
2023-08-06T16:20:04.850Z,18.00
2023-08-06T16:22:33.240Z,18.00
2023-08-06T16:25:01.617Z,18.00
2023-08-06T16:27:30.135Z,18.00
2023-08-06T16:29:59.186Z,18.00
2023-08-06T16:32:29.101Z,18.00
2023-08-06T16:34:57.678Z,18.00
2023-08-06T16:37:26.174Z,17.90
2023-08-06T16:39:54.676Z,17.90
2023-08-06T16:42:23.138Z,17.80
2023-08-06T16:44:51.489Z,17.70
2023-08-06T16:47:19.929Z,17.70
2023-08-06T16:49:49.590Z,17.60
2023-08-06T16:52:19.044Z,17.50
2023-08-06T16:54:47.527Z,17.50
2023-08-06T16:57:15.895Z,17.50
2023-08-06T16:59:44.306Z,17.50
2023-08-06T17:02:13.301Z,17.50
2023-08-06T17:04:41.702Z,17.60
2023-08-06T17:07:11.452Z,17.60
2023-08-06T17:09:39.801Z,17.60
2023-08-06T17:12:09.340Z,17.70
2023-08-06T17:14:37.820Z,17.70
2023-08-06T17:17:06.704Z,17.70
2023-08-06T17:19:35.068Z,17.70
2023-08-06T17:22:03.479Z,17.70
2023-08-06T17:24:33.229Z,17.70
2023-08-06T17:27:01.679Z,17.60
2023-08-06T17:29:30.093Z,17.60
2023-08-06T17:31:58.433Z,17.50
2023-08-06T17:34:28.916Z,17.50
2023-08-06T17:36:57.470Z,17.50
2023-08-06T17:39:25.966Z,17.40
2023-08-06T17:41:55.672Z,17.30
2023-08-06T17:44:24.166Z,17.20
2023-08-06T17:46:52.825Z,17.10
2023-08-06T17:49:21.476Z,17.00
2023-08-06T17:51:49.948Z,16.90
2023-08-06T17:54:18.390Z,16.90
2023-08-06T17:56:46.774Z,16.90
2023-08-06T17:59:16.586Z,16.90
2023-08-06T18:01:45.061Z,16.80
2023-08-06T18:04:13.509Z,16.80
2023-08-06T18:06:42.010Z,16.80
2023-08-06T18:09:10.568Z,16.80
2023-08-06T18:11:39.006Z,16.80
2023-08-06T18:14:07.446Z,16.80
2023-08-06T18:16:37.186Z,16.80
2023-08-06T18:19:05.687Z,16.80
2023-08-06T18:21:34.144Z,16.70
2023-08-06T18:24:02.569Z,16.70
2023-08-06T18:26:31.175Z,16.70
2023-08-06T18:28:59.628Z,16.60
2023-08-06T18:31:28.056Z,16.60
2023-08-06T18:33:57.996Z,16.60
2023-08-06T18:36:26.426Z,16.60
2023-08-06T18:38:55.074Z,16.60
2023-08-06T18:41:23.584Z,16.60
2023-08-06T18:43:52.002Z,16.60
2023-08-06T18:46:20.434Z,16.60
2023-08-06T18:48:48.823Z,16.60
2023-08-06T18:51:21.006Z,16.60
2023-08-06T18:53:49.464Z,16.60
2023-08-06T18:56:17.847Z,16.60
2023-08-06T18:58:46.244Z,16.50
2023-08-06T19:01:14.712Z,16.60
2023-08-06T19:03:43.823Z,16.50
2023-08-06T19:06:12.355Z,16.50
2023-08-06T19:08:42.824Z,16.40
2023-08-06T19:11:11.275Z,16.40
2023-08-06T19:13:39.601Z,16.40
2023-08-06T19:16:08.070Z,16.40
2023-08-06T19:18:36.531Z,16.40
2023-08-06T19:21:04.976Z,16.40
2023-08-06T19:23:33.404Z,16.40
2023-08-06T19:26:03.587Z,16.50
2023-08-06T19:28:32.007Z,16.50
2023-08-06T19:31:00.939Z,16.50
2023-08-06T19:33:29.423Z,16.50
2023-08-06T19:35:57.924Z,16.50
2023-08-06T19:38:26.777Z,16.50
2023-08-06T19:41:06.278Z,16.50
2023-08-06T19:43:36.935Z,16.50
2023-08-06T19:46:05.574Z,16.50
2023-08-06T19:48:34.661Z,16.50
2023-08-06T19:51:04.346Z,16.50
2023-08-06T19:53:33.629Z,16.50
2023-08-06T19:56:03.769Z,16.50
2023-08-06T19:58:34.954Z,16.50
2023-08-06T20:01:03.986Z,16.50
2023-08-06T20:03:33.763Z,16.40
2023-08-06T20:06:03.120Z,16.40
2023-08-06T20:08:33.324Z,16.40
2023-08-06T20:11:01.737Z,16.40
2023-08-06T20:13:30.193Z,16.40
2023-08-06T20:16:01.522Z,16.40
2023-08-06T20:18:30.168Z,16.40
2023-08-06T20:20:58.821Z,16.40
2023-08-06T20:23:28.079Z,16.40
2023-08-06T20:25:56.668Z,16.40
2023-08-06T20:28:26.816Z,16.40
2023-08-06T20:30:56.387Z,16.40
2023-08-06T20:33:26.234Z,16.40
2023-08-06T20:35:55.671Z,16.40
2023-08-06T20:38:25.863Z,16.40
2023-08-06T20:40:56.886Z,16.40
2023-08-06T20:43:26.496Z,16.40
2023-08-06T20:45:55.472Z,16.40
2023-08-06T20:48:26.148Z,16.30
2023-08-06T20:50:54.667Z,16.30
2023-08-06T20:53:24.079Z,16.30
2023-08-06T20:56:00.993Z,16.30
2023-08-06T20:58:29.807Z,16.30
2023-08-06T21:00:58.356Z,16.30
2023-08-06T21:03:28.499Z,16.30
2023-08-06T21:06:01.718Z,16.30
2023-08-06T21:08:30.964Z,16.20
2023-08-06T21:10:59.363Z,16.20
2023-08-06T21:13:29.994Z,16.20
2023-08-06T21:15:59.475Z,16.20
2023-08-06T21:18:31.063Z,16.20
2023-08-06T21:20:59.512Z,16.10
2023-08-06T21:23:27.887Z,16.10
2023-08-06T21:25:59.876Z,16.10
2023-08-06T21:28:29.963Z,16.10
2023-08-06T21:30:58.815Z,16.00
2023-08-06T21:33:29.564Z,16.00
2023-08-06T21:35:59.622Z,16.00
2023-08-06T21:38:28.030Z,16.00
2023-08-06T21:40:56.925Z,15.90
2023-08-06T21:43:25.354Z,15.90
2023-08-06T21:45:53.801Z,15.80
2023-08-06T21:48:23.689Z,15.80
2023-08-06T21:50:53.436Z,15.80
2023-08-06T21:53:21.828Z,15.70
2023-08-06T21:55:50.214Z,15.70
2023-08-06T21:58:18.536Z,15.70
2023-08-06T22:00:47.020Z,15.60
2023-08-06T22:03:15.589Z,15.60
2023-08-06T22:05:44.032Z,15.60
2023-08-06T22:08:14.232Z,15.50
2023-08-06T22:10:42.681Z,15.50
2023-08-06T22:13:11.185Z,15.50
2023-08-06T22:15:39.513Z,15.40
2023-08-06T22:18:08.558Z,15.40
2023-08-06T22:20:37.053Z,15.40
2023-08-06T22:23:05.434Z,15.40
2023-08-06T22:25:35.197Z,15.40
2023-08-06T22:28:04.195Z,15.40
2023-08-06T22:30:32.536Z,15.30
2023-08-06T22:33:01.022Z,15.30
2023-08-06T22:35:29.651Z,15.30
2023-08-06T22:37:58.166Z,15.30
2023-08-06T22:40:26.636Z,15.20
2023-08-06T22:42:56.393Z,15.20
2023-08-06T22:45:24.928Z,15.20
2023-08-06T22:47:53.289Z,15.20
2023-08-06T22:50:21.767Z,15.20
2023-08-06T22:52:50.194Z,15.20
2023-08-06T22:55:40.655Z,15.20
2023-08-06T22:58:08.542Z,15.20
2023-08-06T23:00:36.902Z,15.10
2023-08-06T23:03:10.703Z,15.10
2023-08-06T23:05:39.661Z,15.10
2023-08-06T23:08:08.083Z,15.10
2023-08-06T23:10:36.850Z,15.00
2023-08-06T23:13:08.877Z,15.00
2023-08-06T23:15:37.274Z,15.00
2023-08-06T23:18:05.853Z,15.00
2023-08-06T23:20:34.435Z,15.00
2023-08-06T23:23:02.869Z,15.00
2023-08-06T23:25:31.343Z,15.00
2023-08-06T23:27:59.818Z,15.00
2023-08-06T23:30:30.662Z,15.00
2023-08-06T23:32:59.118Z,15.00
2023-08-06T23:35:27.580Z,15.00
2023-08-06T23:37:56.058Z,15.00
2023-08-06T23:40:24.896Z,15.00
2023-08-06T23:42:53.257Z,15.00
2023-08-06T23:45:21.654Z,14.90
2023-08-06T23:47:51.520Z,15.00
2023-08-06T23:50:19.925Z,15.00
2023-08-06T23:52:48.382Z,14.90
2023-08-06T23:55:16.909Z,14.90
2023-08-06T23:57:45.298Z,14.90
